sensor_id;sensor_type;location;lat;lon;timestamp;pressure;altitude;pressure_sealevel;temperature;humidity
64704;BME280;51130;52.298;13.686;2022-09-28T00:01:32;75530.00;;;-141.89;58.42
64704;BME280;51130;52.298;13.686;2022-09-28T00:03:58;75530.00;;;-141.89;58.45
64704;BME280;51130;52.298;13.686;2022-09-28T00:06:26;75530.00;;;-141.89;58.87
64704;BME280;51130;52.298;13.686;2022-09-28T00:08:53;75530.00;;;-141.89;58.80
64704;BME280;51130;52.298;13.686;2022-09-28T00:11:20;75522.00;;;-141.89;58.78
64704;BME280;51130;52.298;13.686;2022-09-28T00:13:50;75526.00;;;-141.89;59.03
64704;BME280;51130;52.298;13.686;2022-09-28T00:16:18;75526.00;;;-141.89;58.49
64704;BME280;51130;52.298;13.686;2022-09-28T00:18:45;75528.00;;;-141.89;58.60
64704;BME280;51130;52.298;13.686;2022-09-28T00:21:15;75526.00;;;-141.89;58.82
64704;BME280;51130;52.298;13.686;2022-09-28T00:23:43;75526.00;;;-141.89;59.42
64704;BME280;51130;52.298;13.686;2022-09-28T00:26:29;75528.00;;;-141.89;59.12
64704;BME280;51130;52.298;13.686;2022-09-28T00:28:57;75526.00;;;-141.89;58.83
64704;BME280;51130;52.298;13.686;2022-09-28T00:31:24;75530.00;;;-141.89;58.50
64704;BME280;51130;52.298;13.686;2022-09-28T00:33:52;75524.00;;;-141.89;58.62
64704;BME280;51130;52.298;13.686;2022-09-28T00:36:18;75518.00;;;-141.89;58.62
64704;BME280;51130;52.298;13.686;2022-09-28T00:38:45;75518.00;;;-141.89;58.60
64704;BME280;51130;52.298;13.686;2022-09-28T00:41:11;75518.00;;;-141.89;58.89
64704;BME280;51130;52.298;13.686;2022-09-28T00:43:38;75514.00;;;-141.89;58.51
64704;BME280;51130;52.298;13.686;2022-09-28T00:46:09;75508.00;;;-141.89;58.75
64704;BME280;51130;52.298;13.686;2022-09-28T00:48:38;75512.00;;;-141.89;58.34
64704;BME280;51130;52.298;13.686;2022-09-28T00:51:06;75510.00;;;-141.89;58.57
64704;BME280;51130;52.298;13.686;2022-09-28T00:53:35;75514.00;;;-141.89;58.41
64704;BME280;51130;52.298;13.686;2022-09-28T00:56:07;75512.00;;;-141.89;58.54
64704;BME280;51130;52.298;13.686;2022-09-28T00:58:40;75510.00;;;-141.89;58.78
64704;BME280;51130;52.298;13.686;2022-09-28T01:01:08;75512.00;;;-141.89;58.84
64704;BME280;51130;52.298;13.686;2022-09-28T01:03:35;75506.00;;;-141.89;59.24
64704;BME280;51130;52.298;13.686;2022-09-28T01:06:02;75506.00;;;-141.89;58.76
64704;BME280;51130;52.298;13.686;2022-09-28T01:08:30;75502.00;;;-141.89;58.51
64704;BME280;51130;52.298;13.686;2022-09-28T01:10:58;75506.00;;;-141.89;58.20
64704;BME280;51130;52.298;13.686;2022-09-28T01:13:25;75506.00;;;-141.89;58.20
64704;BME280;51130;52.298;13.686;2022-09-28T01:18:21;75508.00;;;-141.89;59.08
64704;BME280;51130;52.298;13.686;2022-09-28T01:29:12;75500.00;;;-141.89;58.11
64704;BME280;51130;52.298;13.686;2022-09-28T01:31:42;75502.00;;;-141.89;57.96
64704;BME280;51130;52.298;13.686;2022-09-28T01:34:11;75500.00;;;-141.89;58.08
64704;BME280;51130;52.298;13.686;2022-09-28T01:36:42;75500.00;;;-141.89;57.99
64704;BME280;51130;52.298;13.686;2022-09-28T01:39:13;75502.00;;;-141.89;58.03
64704;BME280;51130;52.298;13.686;2022-09-28T01:41:42;75504.00;;;-141.89;58.24
64704;BME280;51130;52.298;13.686;2022-09-28T01:44:11;75498.00;;;-141.89;58.11
64704;BME280;51130;52.298;13.686;2022-09-28T01:46:39;75506.00;;;-141.89;58.07
64704;BME280;51130;52.298;13.686;2022-09-28T01:49:08;75500.00;;;-141.89;58.14
64704;BME280;51130;52.298;13.686;2022-09-28T01:51:56;75508.00;;;-141.89;58.00
64704;BME280;51130;52.298;13.686;2022-09-28T01:54:27;75504.00;;;-141.89;58.02
64704;BME280;51130;52.298;13.686;2022-09-28T01:56:57;75506.00;;;-141.89;58.13
64704;BME280;51130;52.298;13.686;2022-09-28T01:59:26;75504.00;;;-141.89;57.93
64704;BME280;51130;52.298;13.686;2022-09-28T02:01:56;75504.00;;;-141.89;57.90
64704;BME280;51130;52.298;13.686;2022-09-28T02:04:31;75500.00;;;-141.89;57.79
64704;BME280;51130;52.298;13.686;2022-09-28T02:07:02;75498.00;;;-141.89;58.11
64704;BME280;51130;52.298;13.686;2022-09-28T02:09:34;75500.00;;;-141.89;58.20
64704;BME280;51130;52.298;13.686;2022-09-28T02:12:20;75502.00;;;-141.89;58.21
64704;BME280;51130;52.298;13.686;2022-09-28T02:14:48;75504.00;;;-141.89;58.44
64704;BME280;51130;52.298;13.686;2022-09-28T02:17:14;75502.00;;;-141.89;58.51
64704;BME280;51130;52.298;13.686;2022-09-28T02:19:41;75498.00;;;-141.89;58.14
64704;BME280;51130;52.298;13.686;2022-09-28T02:24:39;75498.00;;;-141.89;58.42
64704;BME280;51130;52.298;13.686;2022-09-28T02:27:11;75498.00;;;-141.89;57.95
64704;BME280;51130;52.298;13.686;2022-09-28T02:29:39;75498.00;;;-141.89;58.04
64704;BME280;51130;52.298;13.686;2022-09-28T02:32:05;75494.00;;;-141.89;57.91
64704;BME280;51130;52.298;13.686;2022-09-28T02:34:32;75492.00;;;-141.89;58.06
64704;BME280;51130;52.298;13.686;2022-09-28T02:36:58;75490.00;;;-141.89;58.08
64704;BME280;51130;52.298;13.686;2022-09-28T02:39:25;75494.00;;;-141.89;58.21
64704;BME280;51130;52.298;13.686;2022-09-28T02:42:00;75494.00;;;-141.89;57.80
64704;BME280;51130;52.298;13.686;2022-09-28T02:47:20;75490.00;;;-141.89;57.62
64704;BME280;51130;52.298;13.686;2022-09-28T02:57:50;75488.00;;;-141.89;58.28
64704;BME280;51130;52.298;13.686;2022-09-28T03:00:22;75484.00;;;-141.89;58.29
64704;BME280;51130;52.298;13.686;2022-09-28T03:05:35;75484.00;;;-141.89;58.34
64704;BME280;51130;52.298;13.686;2022-09-28T03:10:46;75486.00;;;-141.89;58.18
64704;BME280;51130;52.298;13.686;2022-09-28T03:13:14;75486.00;;;-141.89;58.46
64704;BME280;51130;52.298;13.686;2022-09-28T03:15:41;75486.00;;;-141.89;57.97
64704;BME280;51130;52.298;13.686;2022-09-28T03:18:14;75478.00;;;-141.89;58.70
64704;BME280;51130;52.298;13.686;2022-09-28T03:20:40;75476.00;;;-141.89;57.98
64704;BME280;51130;52.298;13.686;2022-09-28T03:23:07;75474.00;;;-141.89;58.00
64704;BME280;51130;52.298;13.686;2022-09-28T03:25:50;75474.00;;;-141.89;58.26
64704;BME280;51130;52.298;13.686;2022-09-28T03:28:16;75470.00;;;-141.89;57.87
64704;BME280;51130;52.298;13.686;2022-09-28T03:30:43;75468.00;;;-141.89;57.83
64704;BME280;51130;52.298;13.686;2022-09-28T03:33:09;75474.00;;;-141.89;57.93
64704;BME280;51130;52.298;13.686;2022-09-28T03:35:36;75474.00;;;-141.89;58.12
64704;BME280;51130;52.298;13.686;2022-09-28T03:38:02;75474.00;;;-141.89;58.36
64704;BME280;51130;52.298;13.686;2022-09-28T03:40:28;75474.00;;;-141.89;58.13
64704;BME280;51130;52.298;13.686;2022-09-28T03:42:55;75472.00;;;-141.89;57.79
64704;BME280;51130;52.298;13.686;2022-09-28T03:45:21;75466.00;;;-141.89;57.80
64704;BME280;51130;52.298;13.686;2022-09-28T03:47:48;75466.00;;;-141.89;57.91
64704;BME280;51130;52.298;13.686;2022-09-28T03:50:14;75458.00;;;-141.89;57.96
64704;BME280;51130;52.298;13.686;2022-09-28T03:52:41;75458.00;;;-141.89;57.90
64704;BME280;51130;52.298;13.686;2022-09-28T03:55:07;75456.00;;;-141.89;57.87
64704;BME280;51130;52.298;13.686;2022-09-28T03:57:34;75447.97;;;-141.89;58.03
64704;BME280;51130;52.298;13.686;2022-09-28T04:00:00;75445.97;;;-141.89;57.78
64704;BME280;51130;52.298;13.686;2022-09-28T04:02:27;75437.97;;;-141.89;58.24
64704;BME280;51130;52.298;13.686;2022-09-28T04:04:53;75441.97;;;-141.89;58.38
64704;BME280;51130;52.298;13.686;2022-09-28T04:07:19;75433.97;;;-141.89;58.55
64704;BME280;51130;52.298;13.686;2022-09-28T04:09:46;75429.97;;;-141.89;58.42
64704;BME280;51130;52.298;13.686;2022-09-28T04:12:12;75433.97;;;-141.89;58.50
64704;BME280;51130;52.298;13.686;2022-09-28T04:14:39;75429.97;;;-141.89;58.58
64704;BME280;51130;52.298;13.686;2022-09-28T04:17:05;75429.97;;;-141.89;58.33
64704;BME280;51130;52.298;13.686;2022-09-28T04:19:32;75429.97;;;-141.89;58.43
64704;BME280;51130;52.298;13.686;2022-09-28T04:22:00;75433.97;;;-141.89;58.28
64704;BME280;51130;52.298;13.686;2022-09-28T04:24:26;75431.97;;;-141.89;58.48
64704;BME280;51130;52.298;13.686;2022-09-28T04:26:53;75431.97;;;-141.89;58.58
64704;BME280;51130;52.298;13.686;2022-09-28T04:29:39;75421.97;;;-141.89;58.70
64704;BME280;51130;52.298;13.686;2022-09-28T04:32:08;75423.97;;;-141.89;58.67
64704;BME280;51130;52.298;13.686;2022-09-28T04:34:35;75425.97;;;-141.89;58.46
64704;BME280;51130;52.298;13.686;2022-09-28T04:37:07;75423.97;;;-141.89;58.35
64704;BME280;51130;52.298;13.686;2022-09-28T04:39:33;75425.97;;;-141.89;58.37
64704;BME280;51130;52.298;13.686;2022-09-28T04:41:59;75421.97;;;-141.89;58.47
64704;BME280;51130;52.298;13.686;2022-09-28T04:44:26;75425.97;;;-141.89;58.60
64704;BME280;51130;52.298;13.686;2022-09-28T04:46:53;75425.97;;;-141.89;58.88
64704;BME280;51130;52.298;13.686;2022-09-28T04:49:20;75423.97;;;-141.89;58.77
64704;BME280;51130;52.298;13.686;2022-09-28T04:51:46;75421.97;;;-141.89;58.52
64704;BME280;51130;52.298;13.686;2022-09-28T04:54:13;75427.97;;;-141.89;58.57
64704;BME280;51130;52.298;13.686;2022-09-28T04:56:39;75425.97;;;-141.89;58.75
64704;BME280;51130;52.298;13.686;2022-09-28T04:59:06;75425.97;;;-141.89;58.60
64704;BME280;51130;52.298;13.686;2022-09-28T05:01:33;75429.97;;;-141.89;58.66
64704;BME280;51130;52.298;13.686;2022-09-28T05:04:00;75431.97;;;-141.89;58.23
64704;BME280;51130;52.298;13.686;2022-09-28T05:06:26;75433.97;;;-141.89;58.18
64704;BME280;51130;52.298;13.686;2022-09-28T05:08:55;75435.97;;;-141.89;58.08
64704;BME280;51130;52.298;13.686;2022-09-28T05:11:22;75437.97;;;-141.89;57.80
64704;BME280;51130;52.298;13.686;2022-09-28T05:13:50;75445.97;;;-141.89;57.81
64704;BME280;51130;52.298;13.686;2022-09-28T05:16:16;75441.97;;;-141.89;57.88
64704;BME280;51130;52.298;13.686;2022-09-28T05:18:43;75445.97;;;-141.89;58.26
64704;BME280;51130;52.298;13.686;2022-09-28T05:21:12;75441.97;;;-141.89;57.83
64704;BME280;51130;52.298;13.686;2022-09-28T05:23:39;75445.97;;;-141.89;58.09
64704;BME280;51130;52.298;13.686;2022-09-28T05:26:06;75445.97;;;-141.89;58.03
64704;BME280;51130;52.298;13.686;2022-09-28T05:28:32;75445.97;;;-141.89;57.93
64704;BME280;51130;52.298;13.686;2022-09-28T05:30:59;75433.97;;;-141.89;58.12
64704;BME280;51130;52.298;13.686;2022-09-28T05:33:26;75439.97;;;-141.89;57.87
64704;BME280;51130;52.298;13.686;2022-09-28T05:35:53;75437.97;;;-141.89;57.65
64704;BME280;51130;52.298;13.686;2022-09-28T05:38:26;75437.97;;;-141.89;57.40
64704;BME280;51130;52.298;13.686;2022-09-28T05:40:52;75441.97;;;-141.89;57.92
64704;BME280;51130;52.298;13.686;2022-09-28T05:43:19;75435.97;;;-141.89;57.73
64704;BME280;51130;52.298;13.686;2022-09-28T05:45:45;75437.97;;;-141.89;57.75
64704;BME280;51130;52.298;13.686;2022-09-28T05:48:14;75433.97;;;-141.89;57.83
64704;BME280;51130;52.298;13.686;2022-09-28T05:50:40;75427.97;;;-141.89;58.00
64704;BME280;51130;52.298;13.686;2022-09-28T05:53:07;75427.97;;;-141.89;58.04
64704;BME280;51130;52.298;13.686;2022-09-28T05:55:34;75425.97;;;-141.89;57.95
64704;BME280;51130;52.298;13.686;2022-09-28T05:58:02;75413.97;;;-141.89;57.98
64704;BME280;51130;52.298;13.686;2022-09-28T06:00:29;75413.97;;;-141.89;57.82
64704;BME280;51130;52.298;13.686;2022-09-28T06:05:23;75409.97;;;-141.89;57.95
64704;BME280;51130;52.298;13.686;2022-09-28T06:07:49;75411.97;;;-141.89;57.81
64704;BME280;51130;52.298;13.686;2022-09-28T06:10:16;75409.97;;;-141.89;57.91
64704;BME280;51130;52.298;13.686;2022-09-28T06:12:43;75405.97;;;-141.89;57.84
64704;BME280;51130;52.298;13.686;2022-09-28T06:15:10;75403.97;;;-141.89;57.96
64704;BME280;51130;52.298;13.686;2022-09-28T06:17:37;75407.97;;;-141.89;57.95
64704;BME280;51130;52.298;13.686;2022-09-28T06:20:03;75409.97;;;-141.89;57.62
64704;BME280;51130;52.298;13.686;2022-09-28T06:22:30;75409.97;;;-141.89;57.77
64704;BME280;51130;52.298;13.686;2022-09-28T06:24:56;75407.97;;;-141.89;57.87
64704;BME280;51130;52.298;13.686;2022-09-28T06:27:23;75403.97;;;-141.89;57.88
64704;BME280;51130;52.298;13.686;2022-09-28T06:29:49;75399.97;;;-141.89;57.88
64704;BME280;51130;52.298;13.686;2022-09-28T06:32:15;75397.97;;;-141.89;57.66
64704;BME280;51130;52.298;13.686;2022-09-28T06:34:42;75393.97;;;-141.89;57.83
64704;BME280;51130;52.298;13.686;2022-09-28T06:37:08;75393.97;;;-141.89;57.67
64704;BME280;51130;52.298;13.686;2022-09-28T06:39:34;75389.97;;;-141.89;58.21
64704;BME280;51130;52.298;13.686;2022-09-28T06:42:01;75389.97;;;-141.89;57.97
64704;BME280;51130;52.298;13.686;2022-09-28T06:44:29;75393.97;;;-141.89;58.00
64704;BME280;51130;52.298;13.686;2022-09-28T06:46:57;75385.97;;;-141.89;58.19
64704;BME280;51130;52.298;13.686;2022-09-28T06:49:23;75381.97;;;-141.89;58.43
64704;BME280;51130;52.298;13.686;2022-09-28T06:51:54;75381.97;;;-141.89;58.73
64704;BME280;51130;52.298;13.686;2022-09-28T06:54:20;75369.97;;;-141.89;58.70
64704;BME280;51130;52.298;13.686;2022-09-28T06:56:51;75363.94;;;-141.89;58.53
64704;BME280;51130;52.298;13.686;2022-09-28T06:59:17;75353.94;;;-141.89;58.52
64704;BME280;51130;52.298;13.686;2022-09-28T07:01:44;75353.94;;;-141.89;58.35
64704;BME280;51130;52.298;13.686;2022-09-28T07:04:10;75355.94;;;-141.89;58.28
64704;BME280;51130;52.298;13.686;2022-09-28T07:06:36;75357.94;;;-141.89;58.31
64704;BME280;51130;52.298;13.686;2022-09-28T07:09:03;75361.94;;;-141.89;58.46
64704;BME280;51130;52.298;13.686;2022-09-28T07:11:52;75363.94;;;-141.89;58.42
64704;BME280;51130;52.298;13.686;2022-09-28T07:14:18;75365.94;;;-141.89;58.39
64704;BME280;51130;52.298;13.686;2022-09-28T07:17:06;75369.97;;;-141.89;58.45
64704;BME280;51130;52.298;13.686;2022-09-28T07:19:39;75369.97;;;-141.89;58.48
64704;BME280;51130;52.298;13.686;2022-09-28T07:22:05;75365.94;;;-141.89;58.49
64704;BME280;51130;52.298;13.686;2022-09-28T07:24:32;75371.97;;;-141.89;58.55
64704;BME280;51130;52.298;13.686;2022-09-28T07:26:58;75361.94;;;-141.89;58.46
64704;BME280;51130;52.298;13.686;2022-09-28T07:29:25;75369.97;;;-141.89;58.43
64704;BME280;51130;52.298;13.686;2022-09-28T07:31:52;75373.97;;;-141.89;58.60
64704;BME280;51130;52.298;13.686;2022-09-28T07:34:18;75377.97;;;-141.89;58.52
64704;BME280;51130;52.298;13.686;2022-09-28T07:36:48;75379.97;;;-141.89;58.70
64704;BME280;51130;52.298;13.686;2022-09-28T07:39:14;75381.97;;;-141.89;58.68
64704;BME280;51130;52.298;13.686;2022-09-28T07:41:40;75381.97;;;-141.89;58.62
64704;BME280;51130;52.298;13.686;2022-09-28T07:44:08;75383.97;;;-141.89;58.73
64704;BME280;51130;52.298;13.686;2022-09-28T07:46:34;75389.97;;;-141.89;58.78
64704;BME280;51130;52.298;13.686;2022-09-28T07:49:01;75385.97;;;-141.89;58.65
64704;BME280;51130;52.298;13.686;2022-09-28T07:51:36;75389.97;;;-141.89;58.59
64704;BME280;51130;52.298;13.686;2022-09-28T07:54:02;75383.97;;;-141.89;58.52
64704;BME280;51130;52.298;13.686;2022-09-28T07:56:29;75387.97;;;-141.89;58.83
64704;BME280;51130;52.298;13.686;2022-09-28T07:58:56;75383.97;;;-141.89;58.78
64704;BME280;51130;52.298;13.686;2022-09-28T08:01:22;75385.97;;;-141.89;58.73
64704;BME280;51130;52.298;13.686;2022-09-28T08:03:48;75391.97;;;-141.89;58.65
64704;BME280;51130;52.298;13.686;2022-09-28T08:06:15;75397.97;;;-141.89;58.80
64704;BME280;51130;52.298;13.686;2022-09-28T08:08:42;75397.97;;;-141.89;58.73
64704;BME280;51130;52.298;13.686;2022-09-28T08:11:10;75393.97;;;-141.89;58.77
64704;BME280;51130;52.298;13.686;2022-09-28T08:13:37;75397.97;;;-141.89;58.67
64704;BME280;51130;52.298;13.686;2022-09-28T08:16:04;75395.97;;;-141.89;58.47
64704;BME280;51130;52.298;13.686;2022-09-28T08:18:33;75397.97;;;-141.89;58.40
64704;BME280;51130;52.298;13.686;2022-09-28T08:21:03;75397.97;;;-141.89;58.77
64704;BME280;51130;52.298;13.686;2022-09-28T08:23:49;75391.97;;;-141.89;58.77
64704;BME280;51130;52.298;13.686;2022-09-28T08:26:15;75397.97;;;-141.89;58.66
64704;BME280;51130;52.298;13.686;2022-09-28T08:28:42;75405.97;;;-141.89;58.60
64704;BME280;51130;52.298;13.686;2022-09-28T08:31:10;75405.97;;;-141.89;58.58
64704;BME280;51130;52.298;13.686;2022-09-28T08:33:36;75413.97;;;-141.89;58.57
64704;BME280;51130;52.298;13.686;2022-09-28T08:36:03;75409.97;;;-141.89;58.74
64704;BME280;51130;52.298;13.686;2022-09-28T08:38:31;75409.97;;;-141.89;58.62
64704;BME280;51130;52.298;13.686;2022-09-28T08:46:16;75401.97;;;-141.89;58.76
64704;BME280;51130;52.298;13.686;2022-09-28T08:54:11;75405.97;;;-141.89;58.62
64704;BME280;51130;52.298;13.686;2022-09-28T08:56:46;75405.97;;;-141.89;58.66
64704;BME280;51130;52.298;13.686;2022-09-28T08:59:21;75405.97;;;-141.89;58.54
64704;BME280;51130;52.298;13.686;2022-09-28T09:01:51;75405.97;;;-141.89;58.65
64704;BME280;51130;52.298;13.686;2022-09-28T09:04:23;75397.97;;;-141.89;58.69
64704;BME280;51130;52.298;13.686;2022-09-28T09:09:38;75397.97;;;-141.89;58.62
64704;BME280;51130;52.298;13.686;2022-09-28T09:12:18;75401.97;;;-141.89;58.61
64704;BME280;51130;52.298;13.686;2022-09-28T09:19:59;75397.97;;;-141.89;58.63
64704;BME280;51130;52.298;13.686;2022-09-28T09:22:32;75397.97;;;-141.89;58.55
64704;BME280;51130;52.298;13.686;2022-09-28T09:30:18;75401.97;;;-141.89;58.19
64704;BME280;51130;52.298;13.686;2022-09-28T09:38:06;75401.97;;;-141.89;58.31
64704;BME280;51130;52.298;13.686;2022-09-28T09:46:02;75405.97;;;-141.89;58.42
64704;BME280;51130;52.298;13.686;2022-09-28T09:48:46;75397.97;;;-141.89;58.22
64704;BME280;51130;52.298;13.686;2022-09-28T09:51:21;75405.97;;;-141.89;58.12
64704;BME280;51130;52.298;13.686;2022-09-28T09:53:52;75399.97;;;-141.89;58.21
64704;BME280;51130;52.298;13.686;2022-09-28T09:56:28;75397.97;;;-141.89;58.26
64704;BME280;51130;52.298;13.686;2022-09-28T09:58:58;75401.97;;;-141.89;58.29
64704;BME280;51130;52.298;13.686;2022-09-28T10:01:38;75397.97;;;-141.89;58.34
64704;BME280;51130;52.298;13.686;2022-09-28T10:04:07;75397.97;;;-141.89;58.21
64704;BME280;51130;52.298;13.686;2022-09-28T10:06:37;75397.97;;;-141.89;58.21
64704;BME280;51130;52.298;13.686;2022-09-28T10:09:05;75401.97;;;-141.89;58.26
64704;BME280;51130;52.298;13.686;2022-09-28T10:11:38;75397.97;;;-141.89;58.34
64704;BME280;51130;52.298;13.686;2022-09-28T10:14:09;75397.97;;;-141.89;58.19
64704;BME280;51130;52.298;13.686;2022-09-28T10:16:38;75397.97;;;-141.89;58.06
64704;BME280;51130;52.298;13.686;2022-09-28T10:19:06;75397.97;;;-141.89;58.01
64704;BME280;51130;52.298;13.686;2022-09-28T10:21:33;75397.97;;;-141.89;58.14
64704;BME280;51130;52.298;13.686;2022-09-28T10:24:02;75397.97;;;-141.89;58.04
64704;BME280;51130;52.298;13.686;2022-09-28T10:26:33;75397.97;;;-141.89;58.06
64704;BME280;51130;52.298;13.686;2022-09-28T10:29:02;75401.97;;;-141.89;58.25
64704;BME280;51130;52.298;13.686;2022-09-28T10:34:00;75399.97;;;-141.89;58.34
64704;BME280;51130;52.298;13.686;2022-09-28T10:36:29;75403.97;;;-141.89;58.28
64704;BME280;51130;52.298;13.686;2022-09-28T10:39:03;75401.97;;;-141.89;58.06
64704;BME280;51130;52.298;13.686;2022-09-28T10:41:30;75401.97;;;-141.89;58.06
64704;BME280;51130;52.298;13.686;2022-09-28T10:43:58;75401.97;;;-141.89;57.99
64704;BME280;51130;52.298;13.686;2022-09-28T10:46:32;75399.97;;;-141.89;58.12
64704;BME280;51130;52.298;13.686;2022-09-28T10:49:01;75401.97;;;-141.89;58.18
64704;BME280;51130;52.298;13.686;2022-09-28T10:51:42;75401.97;;;-141.89;58.03
64704;BME280;51130;52.298;13.686;2022-09-28T10:54:17;75397.97;;;-141.89;58.21
64704;BME280;51130;52.298;13.686;2022-09-28T10:56:44;75405.97;;;-141.89;58.16
64704;BME280;51130;52.298;13.686;2022-09-28T11:01:56;75405.97;;;-141.89;58.27
64704;BME280;51130;52.298;13.686;2022-09-28T11:04:25;75405.97;;;-141.89;58.16
64704;BME280;51130;52.298;13.686;2022-09-28T11:06:52;75401.97;;;-141.89;58.20
64704;BME280;51130;52.298;13.686;2022-09-28T11:11:50;75401.97;;;-141.89;58.63
64704;BME280;51130;52.298;13.686;2022-09-28T11:16:49;75397.97;;;-141.89;58.39
64704;BME280;51130;52.298;13.686;2022-09-28T11:19:35;75397.97;;;-141.89;58.56
64704;BME280;51130;52.298;13.686;2022-09-28T11:22:02;75401.97;;;-141.89;58.50
64704;BME280;51130;52.298;13.686;2022-09-28T11:24:45;75405.97;;;-141.89;58.48
64704;BME280;51130;52.298;13.686;2022-09-28T11:27:19;75405.97;;;-141.89;58.54
64704;BME280;51130;52.298;13.686;2022-09-28T11:29:51;75401.97;;;-141.89;58.32
64704;BME280;51130;52.298;13.686;2022-09-28T11:32:24;75401.97;;;-141.89;58.37
64704;BME280;51130;52.298;13.686;2022-09-28T11:34:51;75397.97;;;-141.89;58.47
64704;BME280;51130;52.298;13.686;2022-09-28T11:42:58;75403.97;;;-141.89;58.70
64704;BME280;51130;52.298;13.686;2022-09-28T11:45:31;75405.97;;;-141.89;58.83
64704;BME280;51130;52.298;13.686;2022-09-28T11:48:01;75405.97;;;-141.89;58.77
64704;BME280;51130;52.298;13.686;2022-09-28T11:52:58;75401.97;;;-141.89;58.49
64704;BME280;51130;52.298;13.686;2022-09-28T11:58:01;75399.97;;;-141.89;58.47
64704;BME280;51130;52.298;13.686;2022-09-28T12:00:28;75403.97;;;-141.89;58.38
64704;BME280;51130;52.298;13.686;2022-09-28T12:05:55;75401.97;;;-141.89;58.72
64704;BME280;51130;52.298;13.686;2022-09-28T12:13:38;75407.97;;;-141.89;58.67
64704;BME280;51130;52.298;13.686;2022-09-28T12:16:19;75405.97;;;-141.89;58.69
64704;BME280;51130;52.298;13.686;2022-09-28T12:19:15;75401.97;;;-141.89;58.67
64704;BME280;51130;52.298;13.686;2022-09-28T12:21:57;75401.97;;;-141.89;58.62
64704;BME280;51130;52.298;13.686;2022-09-28T12:24:41;75401.97;;;-141.89;58.80
64704;BME280;51130;52.298;13.686;2022-09-28T12:27:16;75401.97;;;-141.89;58.91
64704;BME280;51130;52.298;13.686;2022-09-28T12:29:54;75399.97;;;-141.89;59.08
64704;BME280;51130;52.298;13.686;2022-09-28T12:34:54;75401.97;;;-141.89;58.96
64704;BME280;51130;52.298;13.686;2022-09-28T12:39:59;75399.97;;;-141.89;59.24
64704;BME280;51130;52.298;13.686;2022-09-28T12:45:11;75403.97;;;-141.89;58.86
64704;BME280;51130;52.298;13.686;2022-09-28T12:53:06;75401.97;;;-141.89;58.95
64704;BME280;51130;52.298;13.686;2022-09-28T13:01:04;75403.97;;;-141.89;58.83
64704;BME280;51130;52.298;13.686;2022-09-28T13:21:17;75405.97;;;-141.89;59.21
64704;BME280;51130;52.298;13.686;2022-09-28T13:23:47;75405.97;;;-141.89;59.08
64704;BME280;51130;52.298;13.686;2022-09-28T13:28:42;75413.97;;;-141.89;59.16
64704;BME280;51130;52.298;13.686;2022-09-28T13:31:10;75409.97;;;-141.89;59.06
64704;BME280;51130;52.298;13.686;2022-09-28T13:33:38;75409.97;;;-141.89;59.10
64704;BME280;51130;52.298;13.686;2022-09-28T13:38:50;75399.97;;;-141.89;59.19
64704;BME280;51130;52.298;13.686;2022-09-28T13:41:21;75397.97;;;-141.89;59.02
64704;BME280;51130;52.298;13.686;2022-09-28T13:49:10;75405.97;;;-141.89;59.03
64704;BME280;51130;52.298;13.686;2022-09-28T13:57:28;75403.97;;;-141.89;59.04
64704;BME280;51130;52.298;13.686;2022-09-28T14:02:44;75409.97;;;-141.89;59.16
64704;BME280;51130;52.298;13.686;2022-09-28T14:08:09;75413.97;;;-141.89;59.26
64704;BME280;51130;52.298;13.686;2022-09-28T14:10:52;75417.97;;;-141.89;59.18
64704;BME280;51130;52.298;13.686;2022-09-28T14:18:44;75411.97;;;-141.89;58.98
64704;BME280;51130;52.298;13.686;2022-09-28T14:31:47;75421.97;;;-141.89;58.97
64704;BME280;51130;52.298;13.686;2022-09-28T14:34:29;75421.97;;;-141.89;59.17
64704;BME280;51130;52.298;13.686;2022-09-28T14:36:57;75429.97;;;-141.89;59.01
64704;BME280;51130;52.298;13.686;2022-09-28T14:39:44;75425.97;;;-141.89;58.83
64704;BME280;51130;52.298;13.686;2022-09-28T14:42:29;75431.97;;;-141.89;58.97
64704;BME280;51130;52.298;13.686;2022-09-28T14:47:41;75433.97;;;-141.89;58.92
64704;BME280;51130;52.298;13.686;2022-09-28T14:50:21;75437.97;;;-141.89;59.03
64704;BME280;51130;52.298;13.686;2022-09-28T14:52:49;75443.97;;;-141.89;59.15
64704;BME280;51130;52.298;13.686;2022-09-28T14:55:18;75443.97;;;-141.89;59.02
64704;BME280;51130;52.298;13.686;2022-09-28T14:57:50;75445.97;;;-141.89;58.93
64704;BME280;51130;52.298;13.686;2022-09-28T15:00:21;75443.97;;;-141.89;59.05
64704;BME280;51130;52.298;13.686;2022-09-28T15:02:49;75450.00;;;-141.89;59.00
64704;BME280;51130;52.298;13.686;2022-09-28T15:05:22;75447.97;;;-141.89;59.02
64704;BME280;51130;52.298;13.686;2022-09-28T15:07:51;75447.97;;;-141.89;59.04
64704;BME280;51130;52.298;13.686;2022-09-28T15:10:20;75443.97;;;-141.89;59.02
64704;BME280;51130;52.298;13.686;2022-09-28T15:12:52;75443.97;;;-141.89;59.03
64704;BME280;51130;52.298;13.686;2022-09-28T15:15:25;75447.97;;;-141.89;58.83
64704;BME280;51130;52.298;13.686;2022-09-28T15:18:01;75445.97;;;-141.89;58.93
64704;BME280;51130;52.298;13.686;2022-09-28T15:20:30;75454.00;;;-141.89;58.91
64704;BME280;51130;52.298;13.686;2022-09-28T15:22:57;75458.00;;;-141.89;58.85
64704;BME280;51130;52.298;13.686;2022-09-28T15:25:25;75456.00;;;-141.89;58.91
64704;BME280;51130;52.298;13.686;2022-09-28T15:27:53;75458.00;;;-141.89;58.84
64704;BME280;51130;52.298;13.686;2022-09-28T15:30:21;75458.00;;;-141.89;58.90
64704;BME280;51130;52.298;13.686;2022-09-28T15:32:51;75462.00;;;-141.89;58.89
64704;BME280;51130;52.298;13.686;2022-09-28T15:35:20;75462.00;;;-141.89;58.88